createdAt,value
2022-12-18T00:03:45.382Z,19.98
2022-12-18T00:09:19.991Z,23.13
2022-12-18T00:14:50.965Z,21.40
2022-12-18T00:20:26.708Z,23.75
2022-12-18T00:26:02.349Z,22.38
2022-12-18T00:31:35.027Z,24.77
2022-12-18T00:37:06.752Z,25.58
2022-12-18T00:42:56.113Z,21.60
2022-12-18T00:48:27.771Z,21.52
2022-12-18T00:53:59.054Z,23.55
2022-12-18T00:59:31.496Z,19.25
2022-12-18T01:05:03.017Z,21.38
2022-12-18T01:10:34.306Z,22.48
2022-12-18T01:16:05.893Z,18.90
2022-12-18T01:21:39.890Z,18.95
2022-12-18T01:27:11.270Z,20.15
2022-12-18T01:32:44.463Z,22.83
2022-12-18T01:38:15.487Z,19.17
2022-12-18T01:43:46.327Z,17.35
2022-12-18T01:49:17.432Z,15.55
2022-12-18T01:54:50.386Z,15.82
2022-12-18T02:00:22.609Z,19.65
2022-12-18T02:06:34.431Z,16.52
2022-12-18T02:12:17.970Z,18.88
2022-12-18T02:17:53.718Z,17.52
2022-12-18T02:23:37.795Z,17.30
2022-12-18T02:29:13.033Z,20.70
2022-12-18T02:34:46.059Z,19.30
2022-12-18T02:40:20.641Z,19.20
2022-12-18T02:45:55.641Z,18.27
2022-12-18T02:51:34.460Z,18.73
2022-12-18T02:57:35.214Z,19.55
2022-12-18T03:03:13.397Z,19.60
2022-12-18T03:08:48.747Z,15.77
2022-12-18T03:14:22.071Z,20.50
2022-12-18T03:25:27.341Z,17.20
2022-12-18T03:31:02.111Z,17.85
2022-12-18T03:36:34.670Z,17.33
2022-12-18T03:42:18.160Z,20.02
2022-12-18T03:48:16.009Z,22.80
2022-12-18T03:53:50.306Z,18.83
2022-12-18T03:59:26.022Z,19.17
2022-12-18T04:10:32.191Z,18.08
2022-12-18T04:16:06.820Z,18.80
2022-12-18T04:21:38.812Z,17.43
2022-12-18T04:27:10.931Z,19.08
2022-12-18T04:32:52.355Z,17.42
2022-12-18T04:38:25.253Z,19.55
2022-12-18T04:44:05.771Z,20.23
2022-12-18T04:49:36.963Z,16.83
2022-12-18T04:55:08.451Z,19.33
2022-12-18T05:00:39.553Z,15.68
2022-12-18T05:06:11.613Z,19.35
2022-12-18T05:11:42.766Z,19.83
2022-12-18T05:17:13.723Z,19.20
2022-12-18T05:22:45.251Z,17.67
2022-12-18T05:28:16.664Z,17.60
2022-12-18T05:33:47.693Z,16.38
2022-12-18T05:39:18.713Z,17.65
2022-12-18T05:44:49.867Z,15.93
2022-12-18T05:50:20.890Z,16.15
2022-12-18T05:55:51.738Z,15.60
2022-12-18T06:01:27.629Z,14.65
2022-12-18T06:06:58.839Z,16.52
2022-12-18T06:12:29.796Z,16.83
2022-12-18T06:18:01.961Z,14.27
2022-12-18T06:23:33.030Z,13.52
2022-12-18T06:29:04.240Z,15.20
2022-12-18T06:34:37.920Z,13.80
2022-12-18T06:40:09.601Z,13.98
2022-12-18T06:45:40.935Z,13.23
2022-12-18T06:51:12.370Z,14.25
2022-12-18T06:56:43.702Z,12.25
2022-12-18T07:02:15.505Z,12.43
2022-12-18T07:07:46.770Z,11.73
2022-12-18T07:13:18.722Z,12.57
2022-12-18T07:18:50.295Z,15.57
2022-12-18T07:24:21.060Z,14.07
2022-12-18T07:29:52.369Z,14.68
2022-12-18T07:35:25.144Z,16.73
2022-12-18T07:41:11.458Z,16.23
2022-12-18T07:46:43.180Z,15.60
2022-12-18T07:52:14.228Z,14.80
2022-12-18T07:57:56.384Z,14.32
2022-12-18T08:03:31.040Z,16.85
2022-12-18T08:09:02.343Z,16.80
2022-12-18T08:14:33.338Z,16.27
2022-12-18T08:20:05.013Z,14.93
2022-12-18T08:25:36.685Z,15.10
2022-12-18T08:31:09.280Z,15.02
2022-12-18T08:36:40.908Z,14.50
2022-12-18T08:42:30.475Z,18.05
2022-12-18T08:48:01.648Z,16.00
2022-12-18T08:53:35.769Z,17.60
2022-12-18T08:59:07.382Z,22.05
2022-12-18T09:04:41.059Z,20.15
2022-12-18T09:10:12.582Z,21.67
2022-12-18T09:15:44.897Z,21.98
2022-12-18T09:21:18.873Z,22.27
2022-12-18T09:26:52.491Z,21.70
2022-12-18T09:32:26.570Z,25.15
2022-12-18T09:37:57.521Z,22.65
2022-12-18T09:43:42.574Z,25.10
2022-12-18T09:49:16.312Z,21.98
2022-12-18T09:54:53.283Z,23.20
2022-12-18T10:00:26.202Z,26.20
2022-12-18T10:06:13.665Z,23.57
2022-12-18T10:11:58.697Z,21.65
2022-12-18T10:17:40.383Z,24.17
2022-12-18T10:23:34.397Z,20.80
2022-12-18T10:29:12.655Z,24.88
2022-12-18T10:34:51.261Z,24.33
2022-12-18T10:40:24.628Z,22.63
2022-12-18T10:46:01.337Z,28.38
2022-12-18T10:51:35.318Z,24.20
2022-12-18T10:57:37.254Z,28.38
2022-12-18T11:04:06.932Z,25.35
2022-12-18T11:09:40.875Z,25.08
2022-12-18T11:20:58.456Z,26.15
2022-12-18T11:26:37.019Z,27.23
2022-12-18T11:32:25.239Z,26.50
2022-12-18T11:38:04.410Z,24.88
2022-12-18T11:43:42.224Z,24.63
2022-12-18T11:49:19.705Z,25.10
2022-12-18T11:54:57.433Z,38.92
2022-12-18T12:00:29.048Z,25.63
2022-12-18T12:06:00.377Z,28.23
2022-12-18T12:12:12.578Z,28.35
2022-12-18T12:17:45.930Z,26.77
2022-12-18T12:23:26.149Z,32.17
2022-12-18T12:29:40.562Z,30.65
2022-12-18T12:35:29.953Z,25.10
2022-12-18T12:41:04.186Z,25.38
2022-12-18T12:46:39.488Z,26.42
2022-12-18T12:52:17.377Z,28.67
2022-12-18T12:58:09.677Z,24.88
2022-12-18T13:04:18.817Z,27.23
2022-12-18T13:10:15.252Z,24.08
2022-12-18T13:16:04.888Z,24.83
2022-12-18T13:21:36.250Z,27.05
2022-12-18T13:27:45.496Z,27.45
2022-12-18T13:33:20.955Z,24.52
2022-12-18T13:45:42.264Z,25.98
2022-12-18T13:51:19.336Z,28.27
2022-12-18T13:56:50.852Z,24.73
2022-12-18T14:02:24.414Z,25.75
2022-12-18T14:07:56.721Z,26.67
2022-12-18T14:13:31.924Z,27.67
2022-12-18T14:19:15.325Z,28.20
2022-12-18T14:24:48.011Z,27.27
2022-12-18T14:30:25.576Z,22.45
2022-12-18T14:35:58.218Z,24.83
2022-12-18T14:41:29.944Z,25.58
2022-12-18T14:47:01.029Z,25.05
2022-12-18T14:52:33.239Z,29.42
2022-12-18T14:58:04.507Z,29.98
2022-12-18T15:03:35.799Z,25.70
2022-12-18T15:09:23.512Z,27.27
2022-12-18T15:14:54.368Z,27.80
2022-12-18T15:20:26.468Z,33.35
2022-12-18T15:26:02.195Z,28.60
2022-12-18T15:31:37.642Z,31.10
2022-12-18T15:37:09.529Z,28.27
2022-12-18T15:42:59.875Z,28.35
2022-12-18T15:48:31.214Z,32.67
2022-12-18T15:54:05.905Z,29.63
2022-12-18T15:59:37.259Z,28.77
2022-12-18T16:05:16.236Z,30.70
2022-12-18T16:10:47.319Z,30.15
2022-12-18T16:16:18.421Z,32.67
2022-12-18T16:21:51.265Z,33.70
2022-12-18T16:27:23.027Z,25.63
2022-12-18T16:32:57.735Z,33.63
2022-12-18T16:38:28.653Z,27.38
2022-12-18T16:44:03.299Z,31.00
2022-12-18T16:49:34.613Z,32.30
2022-12-18T16:55:06.336Z,28.23
2022-12-18T17:00:41.603Z,29.50
2022-12-18T17:06:12.579Z,30.98
2022-12-18T17:11:44.429Z,32.75
2022-12-18T17:17:23.960Z,28.50
2022-12-18T17:22:55.420Z,33.88
2022-12-18T17:28:28.269Z,31.38
2022-12-18T17:33:59.345Z,31.48
2022-12-18T17:39:30.889Z,30.15
2022-12-18T17:45:03.019Z,32.58
2022-12-18T17:50:34.839Z,34.20
2022-12-18T17:56:06.604Z,36.22
2022-12-18T18:01:44.372Z,39.33
2022-12-18T18:07:16.524Z,37.20
2022-12-18T18:13:06.342Z,33.17
2022-12-18T18:18:38.562Z,35.97
2022-12-18T18:24:11.971Z,36.42
2022-12-18T18:29:43.220Z,39.63
2022-12-18T18:35:44.725Z,36.28
2022-12-18T18:41:06.703Z,36.60
2022-12-18T18:46:38.450Z,39.15
2022-12-18T18:52:09.427Z,40.22
2022-12-18T18:57:40.491Z,39.63
2022-12-18T19:03:12.684Z,40.47
2022-12-18T19:08:46.590Z,40.10
2022-12-18T19:19:52.302Z,42.60
2022-12-18T19:25:29.949Z,42.60
2022-12-18T19:31:13.963Z,38.63
2022-12-18T19:36:46.730Z,42.05
2022-12-18T19:42:24.915Z,43.35
2022-12-18T19:48:03.940Z,42.35
2022-12-18T19:53:35.841Z,44.83
2022-12-18T19:59:06.794Z,40.08
2022-12-18T20:04:37.997Z,36.58
2022-12-18T20:10:14.558Z,43.55
2022-12-18T20:15:47.213Z,37.85
2022-12-18T20:21:18.607Z,33.80
2022-12-18T20:26:50.375Z,36.05
2022-12-18T20:32:21.438Z,32.83
2022-12-18T20:37:52.948Z,31.88
2022-12-18T20:43:24.555Z,31.13
2022-12-18T20:48:55.679Z,28.55
2022-12-18T20:54:27.741Z,30.92
2022-12-18T20:59:59.149Z,28.10
2022-12-18T21:05:30.348Z,25.45
2022-12-18T21:11:45.695Z,25.42
2022-12-18T21:17:17.248Z,24.60
2022-12-18T21:22:49.601Z,28.17
2022-12-18T21:28:20.602Z,32.45
2022-12-18T21:33:54.172Z,32.97
2022-12-18T21:39:31.509Z,30.55
2022-12-18T21:45:02.784Z,33.92
2022-12-18T21:50:34.175Z,29.40
2022-12-18T21:56:06.065Z,27.35
2022-12-18T22:01:37.960Z,31.90
2022-12-18T22:07:09.644Z,26.55
2022-12-18T22:12:44.180Z,26.92
2022-12-18T22:18:16.177Z,29.35
2022-12-18T22:23:56.031Z,30.67
2022-12-18T22:29:45.877Z,26.80
2022-12-18T22:35:17.152Z,27.13
2022-12-18T22:40:48.127Z,23.77
2022-12-18T22:46:19.742Z,27.48
2022-12-18T22:51:51.472Z,26.15
2022-12-18T22:57:23.617Z,27.13
2022-12-18T23:03:00.434Z,26.05
2022-12-18T23:08:32.624Z,27.33
2022-12-18T23:14:03.828Z,26.35
2022-12-18T23:19:34.920Z,24.48
2022-12-18T23:25:06.149Z,24.42
2022-12-18T23:30:37.110Z,23.63
2022-12-18T23:36:08.499Z,26.17
2022-12-18T23:41:39.806Z,28.40
2022-12-18T23:47:10.832Z,25.65
2022-12-18T23:52:42.139Z,26.05
2022-12-18T23:58:21.126Z,26.33
